Currently 48°F in Anza, California, USA
48°F
73°F / 40°F
2 mph N
0.00"
Monday, October 14, 2019 10:07 PM PDT

Anza, California Weather Summary
Last 36 Hours

Temperature Winds Hourly Humidity Dewpoint
Time Report Norm Report Norm Max Gusts Precip. Rpt. Norm Rpt. Norm Pressure
1Mon 10:07 PM  48.2°F  55°F  2 mph N  4 mph  none  0.00"  65%  66%  36°F  44°F  N/A
Mon 10:00 PM  49.0°F  55°F  calm  4 mph  5 mph  0.00"  68%  66%  38°F  44°F  N/A
Mon 09:00 PM  53.3°F  56°F  5 mph NE  4 mph  6 mph  0.00"  72%  64%  44°F  44°F  N/A
Mon 08:00 PM  56.7°F  59°F  1 mph N  4 mph  6 mph  0.00"  69%  60%  46°F  45°F  N/A
Mon 07:00 PM  59.2°F  62°F  3 mph SW  5 mph  12 mph  0.00"  63%  55%  46°F  45°F  N/A
Mon 06:00 PM  66.1°F  67°F  7 mph NW  6 mph  12 mph  0.00"  48%  47%  45°F  45°F  N/A
Mon 05:00 PM  69.6°F  71°F  calm  8 mph  16 mph  0.00"  39%  40%  42°F  45°F  N/A
Mon 04:00 PM  71.8°F  73°F  calm  9 mph  15 mph  0.00"  37%  36%  43°F  43°F  N/A
Mon 03:00 PM  72.0°F  74°F  2 mph N  9 mph  17 mph  0.00"  35%  34%  42°F  43°F  N/A
2Mon 02:16 PM  73.2°F  74°F  3 mph NW  9 mph  15 mph  ----  33%  34%  42°F  43°F  N/A
Mon 02:00 PM  72.7°F  74°F  7 mph NW  9 mph  15 mph  0.00"  32%  33%  40°F  42°F  N/A
Mon 01:00 PM  71.9°F  74°F  4 mph N  9 mph  18 mph  0.00"  32%  33%  39°F  41°F  N/A
Mon 12:00 PM  71.5°F  73°F  12 mph W  9 mph  16 mph  0.00"  27%  34%  35°F  41°F  N/A
Mon 11:00 AM  69.2°F  71°F  4 mph NW  8 mph  10 mph  0.00"  18%  37%  22°F  42°F  N/A
Mon 10:00 AM  65.3°F  69°F  6 mph W  8 mph  10 mph  0.00"  22%  40%  23°F  43°F  N/A
Mon 09:00 AM  59.4°F  65°F  7 mph NW  7 mph  10 mph  0.00"  39%  47%  33°F  44°F  N/A
Mon 08:00 AM  49.6°F  58°F  3 mph NW  5 mph  9 mph  0.00"  58%  60%  35°F  44°F  N/A
Mon 07:00 AM  42.5°F  52°F  2 mph SW  4 mph  10 mph  0.00"  68%  67%  32°F  40°F  N/A
3Mon 06:29 AM  40.1°F  52°F  7 mph NW  4 mph  10 mph  ----  73%  67%  32°F  41°F  N/A
Mon 06:00 AM  47.5°F  52°F  2 mph N  4 mph  9 mph  0.00"  67%  67%  37°F  41°F  N/A
Mon 05:00 AM  44.7°F  52°F  5 mph N  4 mph  9 mph  0.00"  66%  68%  34°F  41°F  N/A
Mon 04:00 AM  45.2°F  53°F  4 mph S  4 mph  10 mph  0.00"  53%  67%  29°F  42°F  N/A
Mon 03:00 AM  41.7°F  53°F  3 mph NW  5 mph  9 mph  0.00"  72%  67%  33°F  42°F  N/A
Mon 02:00 AM  43.4°F  53°F  3 mph W  4 mph  7 mph  0.00"  82%  67%  38°F  42°F  N/A
Mon 01:00 AM  42.5°F  53°F  2 mph W  4 mph  6 mph  0.00"  85%  68%  38°F  42°F  N/A
Mon 12:00 AM  50.8°F  53°F  calm  4 mph  8 mph  0.00"  76%  68%  43°F  43°F  N/A
Sun 11:00 PM  49.6°F  55°F  3 mph N  4 mph  9 mph  0.00"  74%  67%  41°F  43°F  N/A
Sun 10:00 PM  53.5°F  55°F  3 mph NW  4 mph  8 mph  0.00"  72%  66%  44°F  44°F  N/A
Sun 09:00 PM  52.7°F  56°F  2 mph SW  4 mph  8 mph  0.00"  72%  64%  43°F  44°F  N/A
Sun 08:00 PM  56.7°F  59°F  3 mph SE  4 mph  6 mph  0.00"  65%  60%  45°F  45°F  N/A
Sun 07:00 PM  60.5°F  62°F  2 mph N  4 mph  6 mph  0.00"  59%  55%  45°F  45°F  N/A
Sun 06:00 PM  68.3°F  67°F  calm  6 mph  5 mph  0.00"  21%  47%  25°F  45°F  N/A
Sun 05:00 PM  70.9°F  71°F  calm  8 mph  14 mph  0.00"  19%  40%  25°F  45°F  N/A
Sun 04:00 PM  72.6°F  73°F  1 mph N  9 mph  18 mph  0.00"  17%  36%  24°F  43°F  N/A
Sun 03:00 PM  72.9°F  74°F  5 mph W  9 mph  18 mph  0.00"  17%  34%  24°F  43°F  N/A
Sun 02:00 PM  73.3°F  74°F  6 mph W  9 mph  18 mph  0.00"  17%  33%  24°F  42°F  N/A
Sun 01:00 PM  72.6°F  74°F  calm  9 mph  19 mph  0.00"  17%  32%  23°F  41°F  N/A
Sun 12:00 PM  71.7°F  73°F  3 mph S  9 mph  19 mph  0.00"  18%  33%  24°F  41°F  N/A
Sun 11:00 AM  70.6°F  71°F  7 mph NW  8 mph  17 mph  0.00"  18%  36%  23°F  42°F  N/A

  1. Current weather data. No green row appears if the current weather data is also the high or low for the current day.
  2. High temperature for the current day.
  3. Low temperature for the current day.

The Anza, California weather pages are a service of WeatherCurrents. The Anza Valley is southwestern Riverside County, east of Temecula and Aguanga, south of Mount San Jacinto and west of Mount Santa Rosa.
Copyright ©2019  WeatherCurrents. All rights reserved. - Submit questions and comments - Privacy Policy

This page automatically refreshes every 10 minutes.